createdAt,value
2023-04-03T00:00:41.887Z,99691.88
2023-04-03T00:03:09.872Z,99691.13
2023-04-03T00:05:36.952Z,99699.94
2023-04-03T00:08:05.625Z,99696.44
2023-04-03T00:10:34.852Z,99692.97
2023-04-03T00:13:01.754Z,99691.19
2023-04-03T00:15:28.446Z,99692.13
2023-04-03T00:17:55.117Z,99697.28
2023-04-03T00:20:22.082Z,99697.91
2023-04-03T00:22:48.763Z,99693.31
2023-04-03T00:25:15.780Z,99700.94
2023-04-03T00:27:42.501Z,99696.34
2023-04-03T00:30:12.606Z,99685.44
2023-04-03T00:32:39.468Z,99697.59
2023-04-03T00:35:06.996Z,99683.72
2023-04-03T00:37:34.034Z,99694.16
2023-04-03T00:40:01.715Z,99688.56
2023-04-03T00:42:28.456Z,99693.44
2023-04-03T00:44:58.169Z,99693.44
2023-04-03T00:47:25.743Z,99709.81
2023-04-03T00:49:53.529Z,99700.28
2023-04-03T00:52:23.732Z,99702.59
2023-04-03T00:54:56.506Z,99708.28
2023-04-03T00:57:23.784Z,99707.25
2023-04-03T00:59:53.269Z,99701.94
2023-04-03T01:02:19.998Z,99701.41
2023-04-03T01:04:48.285Z,99704.25
2023-04-03T01:07:22.714Z,99703.16
2023-04-03T01:09:53.377Z,99693.88
2023-04-03T01:12:22.150Z,99697.38
2023-04-03T01:14:57.641Z,99701.88
2023-04-03T01:17:29.225Z,99698.47
2023-04-03T01:20:38.651Z,99699.66
2023-04-03T01:23:12.124Z,99702.97
2023-04-03T01:25:52.861Z,99700.41
2023-04-03T01:28:27.759Z,99704.72
2023-04-03T01:31:02.931Z,99703.88
2023-04-03T01:33:31.979Z,99699.94
2023-04-03T01:35:58.779Z,99708.03
2023-04-03T01:38:26.568Z,99716.50
2023-04-03T01:40:53.449Z,99709.09
2023-04-03T01:43:20.513Z,99712.50
2023-04-03T01:45:47.790Z,99712.31
2023-04-03T01:48:14.819Z,99714.22
2023-04-03T01:50:41.943Z,99711.31
2023-04-03T01:53:09.084Z,99706.09
2023-04-03T01:55:35.946Z,99708.00
2023-04-03T01:58:04.120Z,99711.41
2023-04-03T02:00:32.368Z,99720.81
2023-04-03T02:02:59.058Z,99710.13
2023-04-03T02:05:26.608Z,99708.84
2023-04-03T02:07:54.433Z,99706.97
2023-04-03T02:10:21.269Z,99710.75
2023-04-03T02:12:48.018Z,99712.22
2023-04-03T02:15:14.869Z,99707.75
2023-04-03T02:17:41.667Z,99717.00
2023-04-03T02:20:09.261Z,99715.22
2023-04-03T02:22:36.335Z,99718.00
2023-04-03T02:25:03.331Z,99712.41
2023-04-03T02:27:30.152Z,99725.31
2023-04-03T02:29:56.860Z,99717.72
2023-04-03T02:32:23.627Z,99723.13
2023-04-03T02:34:50.832Z,99720.81
2023-04-03T02:37:18.108Z,99726.94
2023-04-03T02:39:46.815Z,99726.88
2023-04-03T02:42:14.292Z,99718.38
2023-04-03T02:44:41.139Z,99718.91
2023-04-03T02:47:09.747Z,99716.50
2023-04-03T02:49:36.436Z,99724.31
2023-04-03T02:52:03.290Z,99726.25
2023-04-03T02:54:31.726Z,99726.50
2023-04-03T02:57:02.495Z,99729.97
2023-04-03T02:59:29.324Z,99727.31
2023-04-03T03:01:56.991Z,99733.66
2023-04-03T03:04:23.914Z,99727.34
2023-04-03T03:06:51.879Z,99731.38
2023-04-03T03:09:18.607Z,99735.00
2023-04-03T03:11:45.457Z,99734.09
2023-04-03T03:14:13.536Z,99736.94
2023-04-03T03:16:40.573Z,99739.69
2023-04-03T03:19:07.860Z,99741.78
2023-04-03T03:21:34.817Z,99744.19
2023-04-03T03:24:02.337Z,99745.19
2023-04-03T03:26:30.323Z,99748.94
2023-04-03T03:28:58.486Z,99743.09
2023-04-03T03:31:26.530Z,99743.09
2023-04-03T03:33:53.226Z,99738.78
2023-04-03T03:36:19.999Z,99746.19
2023-04-03T03:38:46.701Z,99738.50
2023-04-03T03:41:13.509Z,99743.63
2023-04-03T03:43:42.702Z,99746.56
2023-04-03T03:46:09.648Z,99752.59
2023-04-03T03:48:36.613Z,99751.66
2023-04-03T03:51:03.672Z,99750.75
2023-04-03T03:53:34.847Z,99740.22
2023-04-03T03:56:06.688Z,99739.13
2023-04-03T03:58:35.528Z,99747.63
2023-04-03T04:01:07.217Z,99742.31
2023-04-03T04:03:39.469Z,99747.00
2023-04-03T04:06:08.187Z,99752.50
2023-04-03T04:08:35.366Z,99741.97
2023-04-03T04:11:02.333Z,99750.03
2023-04-03T04:13:29.624Z,99750.66
2023-04-03T04:15:58.780Z,99746.28
2023-04-03T04:18:25.807Z,99744.34
2023-04-03T04:20:52.922Z,99758.09
2023-04-03T04:23:20.274Z,99749.00
2023-04-03T04:25:49.450Z,99759.34
2023-04-03T04:28:17.134Z,99747.88
2023-04-03T04:30:44.804Z,99753.50
2023-04-03T04:33:12.595Z,99763.41
2023-04-03T04:35:43.023Z,99748.94
2023-04-03T04:38:11.637Z,99764.22
2023-04-03T04:40:38.849Z,99767.88
2023-04-03T04:43:06.502Z,99765.03
2023-04-03T04:45:33.653Z,99762.13
2023-04-03T04:48:00.915Z,99764.69
2023-04-03T04:50:27.628Z,99773.19
2023-04-03T04:52:58.221Z,99773.75
2023-04-03T04:55:25.062Z,99773.91
2023-04-03T04:57:51.796Z,99776.75
2023-04-03T05:00:21.523Z,99783.53
2023-04-03T05:02:48.604Z,99789.38
2023-04-03T05:05:15.751Z,99791.78
2023-04-03T05:07:42.664Z,99780.78
2023-04-03T05:10:13.799Z,99788.53
2023-04-03T05:12:41.339Z,99784.19
2023-04-03T05:15:09.273Z,99788.28
2023-04-03T05:17:36.185Z,99783.66
2023-04-03T05:20:06.143Z,99786.47
2023-04-03T05:22:34.372Z,99790.66
2023-04-03T05:25:06.992Z,99785.44
2023-04-03T05:27:34.011Z,99790.00
2023-04-03T05:30:02.085Z,99800.38
2023-04-03T05:32:30.115Z,99794.88
2023-04-03T05:35:13.063Z,99803.47
2023-04-03T05:37:41.952Z,99801.50
2023-04-03T05:40:10.202Z,99807.09
2023-04-03T05:42:40.416Z,99801.81
2023-04-03T05:45:07.789Z,99805.13
2023-04-03T05:47:34.572Z,99796.91
2023-04-03T05:50:01.524Z,99811.47
2023-04-03T05:52:31.232Z,99811.34
2023-04-03T05:54:59.251Z,99800.41
2023-04-03T05:57:30.023Z,99803.84
2023-04-03T05:59:56.841Z,99814.19
2023-04-03T06:02:26.222Z,99810.38
2023-04-03T06:04:54.588Z,99812.19
2023-04-03T06:07:23.913Z,99803.41
2023-04-03T06:09:55.000Z,99807.63
2023-04-03T06:12:23.801Z,99814.00
2023-04-03T06:14:50.603Z,99805.03
2023-04-03T06:17:19.176Z,99807.78
2023-04-03T06:19:46.776Z,99816.88
2023-04-03T06:22:13.971Z,99819.13
2023-04-03T06:24:41.361Z,99822.50
2023-04-03T06:27:08.501Z,99823.47
2023-04-03T06:29:37.372Z,99819.16
2023-04-03T06:32:04.220Z,99826.03
2023-04-03T06:34:31.075Z,99826.41
2023-04-03T06:36:57.903Z,99830.97
2023-04-03T06:39:24.663Z,99829.03
2023-04-03T06:41:51.840Z,99824.94
2023-04-03T06:44:26.636Z,99835.94
2023-04-03T06:46:55.364Z,99828.84
2023-04-03T06:49:22.636Z,99824.56
2023-04-03T06:51:49.372Z,99828.06
2023-04-03T06:54:16.185Z,99824.94
2023-04-03T06:56:42.880Z,99833.63
2023-04-03T06:59:11.056Z,99837.22
2023-04-03T07:01:37.743Z,99843.84
2023-04-03T07:04:04.777Z,99834.81
2023-04-03T07:06:32.149Z,99851.47
2023-04-03T07:08:58.867Z,99840.06
2023-04-03T07:11:25.596Z,99849.44
2023-04-03T07:13:52.326Z,99851.97
2023-04-03T07:16:19.454Z,99871.69
2023-04-03T07:18:46.682Z,99851.38
2023-04-03T07:21:13.766Z,99866.84
2023-04-03T07:23:40.619Z,99870.09
2023-04-03T07:26:07.762Z,99870.78
2023-04-03T07:28:34.809Z,99863.19
2023-04-03T07:31:04.738Z,99874.44
2023-04-03T07:33:32.295Z,99879.28
2023-04-03T07:35:59.429Z,99881.31
2023-04-03T07:38:26.800Z,99880.41
2023-04-03T07:40:53.944Z,99878.19
2023-04-03T07:43:21.855Z,99883.50
2023-04-03T07:45:55.891Z,99883.69
2023-04-03T07:48:25.616Z,99883.53
2023-04-03T07:50:52.597Z,99888.69
2023-04-03T07:53:19.514Z,99886.91
2023-04-03T07:55:50.207Z,99896.44
2023-04-03T07:58:19.201Z,99890.63
2023-04-03T08:00:47.017Z,99897.28
2023-04-03T08:03:15.271Z,99901.47
2023-04-03T08:05:45.226Z,99889.81
2023-04-03T08:08:16.888Z,99898.59
2023-04-03T08:10:44.281Z,99894.53
2023-04-03T08:13:11.537Z,99905.09
2023-04-03T08:15:38.651Z,99900.00
2023-04-03T08:18:06.099Z,99898.94
2023-04-03T08:20:32.962Z,99902.03
2023-04-03T08:23:00.723Z,99894.59
2023-04-03T08:25:30.576Z,99893.22
2023-04-03T08:28:03.905Z,99896.63
2023-04-03T08:30:30.657Z,99895.78
2023-04-03T08:32:57.501Z,99895.97
2023-04-03T08:35:24.915Z,99887.94
2023-04-03T08:37:51.615Z,99896.47
2023-04-03T08:40:24.054Z,99894.69
2023-04-03T08:43:04.600Z,99877.03
2023-04-03T08:45:54.799Z,99887.47
2023-04-03T08:48:32.459Z,99894.53
2023-04-03T08:51:03.631Z,99884.81
2023-04-03T08:53:33.730Z,99895.34
2023-04-03T08:56:10.666Z,99891.13
2023-04-03T08:58:45.772Z,99882.38
2023-04-03T09:01:26.066Z,99879.63
2023-04-03T09:03:52.953Z,99888.69
2023-04-03T09:06:30.294Z,99896.44
2023-04-03T09:09:09.534Z,99885.44
2023-04-03T09:11:54.684Z,99889.91
2023-04-03T09:14:35.564Z,99886.69
2023-04-03T09:17:17.068Z,99884.31
2023-04-03T09:19:59.477Z,99888.28
2023-04-03T09:22:30.282Z,99891.78
2023-04-03T09:25:31.051Z,99895.94
2023-04-03T09:27:59.130Z,99885.22
2023-04-03T09:30:29.637Z,99900.09
2023-04-03T09:32:58.167Z,99899.56
2023-04-03T09:35:40.514Z,99901.97
2023-04-03T09:38:14.363Z,99888.03
2023-04-03T09:40:52.760Z,99900.69
2023-04-03T09:43:35.743Z,99887.56
2023-04-03T09:46:26.546Z,99897.84
2023-04-03T09:49:07.256Z,99895.84
2023-04-03T09:51:34.609Z,99899.25
2023-04-03T09:54:01.774Z,99887.50
2023-04-03T09:56:30.837Z,99889.00
2023-04-03T09:59:03.788Z,99890.03
2023-04-03T10:01:32.407Z,99897.47
2023-04-03T10:04:20.277Z,99900.84
2023-04-03T10:06:48.309Z,99896.84
2023-04-03T10:09:24.050Z,99893.47
2023-04-03T10:12:09.869Z,99897.09
2023-04-03T10:14:39.636Z,99900.34
2023-04-03T10:17:15.725Z,99908.34
2023-04-03T10:20:11.480Z,99901.34
2023-04-03T10:23:03.247Z,99914.31
2023-04-03T10:25:41.437Z,99897.03
2023-04-03T10:28:34.391Z,99896.81
2023-04-03T10:31:30.167Z,99916.59
2023-04-03T10:34:08.835Z,99906.28
2023-04-03T10:37:01.768Z,99907.84
2023-04-03T10:40:28.066Z,99897.75
2023-04-03T10:43:06.481Z,99916.56
2023-04-03T10:45:55.009Z,99915.66
2023-04-03T10:49:03.416Z,99918.84
2023-04-03T10:51:43.358Z,99921.78
2023-04-03T10:54:29.054Z,99915.69
2023-04-03T10:57:12.035Z,99914.03
2023-04-03T10:59:46.982Z,99925.38
2023-04-03T11:02:30.992Z,99918.22
2023-04-03T11:05:17.876Z,99919.03
2023-04-03T11:07:49.585Z,99915.41
2023-04-03T11:10:25.365Z,99918.69
2023-04-03T11:13:13.168Z,99922.00
2023-04-03T11:15:41.226Z,99921.44
2023-04-03T11:18:24.466Z,99916.25
2023-04-03T11:21:09.607Z,99924.25
2023-04-03T11:23:48.732Z,99923.09
2023-04-03T11:26:19.836Z,99917.00
2023-04-03T11:28:47.407Z,99922.97
2023-04-03T11:31:25.161Z,99925.41
2023-04-03T11:34:04.351Z,99914.47
2023-04-03T11:36:35.084Z,99911.41
2023-04-03T11:39:29.383Z,99911.41
2023-04-03T11:42:10.705Z,99912.94
2023-04-03T11:44:41.304Z,99920.81
2023-04-03T11:47:13.347Z,99903.59
2023-04-03T11:49:55.357Z,99913.16
2023-04-03T11:52:44.775Z,99908.19
2023-04-03T11:55:22.266Z,99909.19
2023-04-03T11:58:04.504Z,99914.22
2023-04-03T12:00:52.164Z,99923.22
2023-04-03T12:03:35.863Z,99906.72
2023-04-03T12:06:05.686Z,99907.19
2023-04-03T12:08:41.733Z,99903.75
2023-04-03T12:11:11.779Z,99898.44
2023-04-03T12:13:41.209Z,99900.53
2023-04-03T12:16:23.393Z,99886.34
2023-04-03T12:18:53.268Z,99892.28
2023-04-03T12:21:36.552Z,99883.31
2023-04-03T12:24:09.779Z,99885.69
2023-04-03T12:26:48.572Z,99898.25
2023-04-03T12:29:42.594Z,99877.94
2023-04-03T12:32:33.214Z,99874.03
2023-04-03T12:35:39.808Z,99872.31
2023-04-03T12:38:19.714Z,99861.81
2023-04-03T12:41:13.290Z,99868.09
2023-04-03T12:44:08.527Z,99858.22
2023-04-03T12:46:47.668Z,99878.06
2023-04-03T12:49:43.952Z,99873.63
2023-04-03T12:52:34.358Z,99879.63
2023-04-03T12:55:05.159Z,99879.38
2023-04-03T12:57:33.795Z,99874.69
2023-04-03T13:00:01.307Z,99866.25
2023-04-03T13:02:34.605Z,99863.00
2023-04-03T13:05:15.398Z,99859.22
2023-04-03T13:07:44.702Z,99857.06
2023-04-03T13:10:11.757Z,99850.09
2023-04-03T13:12:59.509Z,99846.34
2023-04-03T13:15:43.122Z,99855.69
2023-04-03T13:18:30.511Z,99858.31
2023-04-03T13:21:04.978Z,99862.53
2023-04-03T13:23:32.737Z,99866.03
2023-04-03T13:26:04.467Z,99871.84
2023-04-03T13:28:33.264Z,99874.25
2023-04-03T13:31:16.362Z,99866.44
2023-04-03T13:33:53.932Z,99864.16
2023-04-03T13:36:24.319Z,99865.00
2023-04-03T13:39:06.532Z,99863.44
2023-04-03T13:41:42.758Z,99860.28
2023-04-03T13:44:18.449Z,99855.13
2023-04-03T13:46:46.002Z,99878.44
2023-04-03T13:49:40.532Z,99858.47
2023-04-03T13:52:24.744Z,99857.28
2023-04-03T13:54:58.190Z,99859.28
2023-04-03T13:57:25.972Z,99853.22
2023-04-03T13:59:53.945Z,99846.63
2023-04-03T14:02:32.826Z,99843.81
2023-04-03T14:05:02.719Z,99848.41
2023-04-03T14:07:30.914Z,99835.00
2023-04-03T14:09:58.345Z,99849.88
2023-04-03T14:12:38.781Z,99847.34
2023-04-03T14:15:27.391Z,99846.97
2023-04-03T14:18:04.998Z,99847.03
2023-04-03T14:20:33.500Z,99843.63
2023-04-03T14:23:02.952Z,99856.50
2023-04-03T14:25:29.984Z,99839.00
2023-04-03T14:27:57.519Z,99844.44
2023-04-03T14:30:34.099Z,99853.25
2023-04-03T14:33:02.022Z,99842.66
2023-04-03T14:35:28.769Z,99846.22
2023-04-03T14:37:56.509Z,99834.28
2023-04-03T14:40:29.702Z,99855.19
2023-04-03T14:42:58.482Z,99842.06
2023-04-03T14:45:25.472Z,99840.47
2023-04-03T14:47:54.458Z,99823.19
2023-04-03T14:50:26.718Z,99842.63
2023-04-03T14:52:56.996Z,99840.41
2023-04-03T14:55:25.277Z,99834.25
2023-04-03T14:57:55.154Z,99842.59
2023-04-03T15:00:23.660Z,99850.75
2023-04-03T15:02:50.897Z,99824.41
2023-04-03T15:05:17.989Z,99819.59
2023-04-03T15:08:01.791Z,99835.28
2023-04-03T15:10:31.171Z,99840.97
2023-04-03T15:13:00.425Z,99835.66
2023-04-03T15:15:30.655Z,99833.47
2023-04-03T15:18:03.457Z,99832.63
2023-04-03T15:20:32.090Z,99823.25
2023-04-03T15:23:01.820Z,99827.38
2023-04-03T15:25:28.757Z,99823.81
2023-04-03T15:27:57.138Z,99833.38
2023-04-03T15:30:23.905Z,99828.00
2023-04-03T15:32:51.189Z,99843.81
2023-04-03T15:35:18.166Z,99837.09
2023-04-03T15:37:47.454Z,99849.06
2023-04-03T15:40:15.857Z,99842.16
2023-04-03T15:42:42.630Z,99847.84
2023-04-03T15:45:09.851Z,99850.13
2023-04-03T15:47:38.177Z,99853.44
2023-04-03T15:50:09.044Z,99856.34
2023-04-03T15:52:36.543Z,99847.56
2023-04-03T15:55:03.783Z,99859.69
2023-04-03T16:00:02.876Z,99864.25
2023-04-03T16:02:33.991Z,99868.50
2023-04-03T16:05:01.028Z,99867.69
2023-04-03T16:07:28.288Z,99854.84
2023-04-03T16:09:55.774Z,99870.22
2023-04-03T16:12:23.114Z,99883.81
2023-04-03T16:14:49.959Z,99871.09
2023-04-03T16:17:16.875Z,99870.03
2023-04-03T16:19:43.843Z,99877.81
2023-04-03T16:22:10.722Z,99870.09
2023-04-03T16:24:39.165Z,99878.13
2023-04-03T16:27:06.505Z,99864.31
2023-04-03T16:29:34.849Z,99873.53
2023-04-03T16:32:02.879Z,99871.03
2023-04-03T16:34:31.871Z,99885.19
2023-04-03T16:36:58.651Z,99874.47
2023-04-03T16:39:25.637Z,99875.31
2023-04-03T16:41:52.475Z,99881.25
2023-04-03T16:44:19.449Z,99877.19
2023-04-03T16:46:47.759Z,99899.00
2023-04-03T16:49:18.089Z,99888.81
2023-04-03T16:51:45.019Z,99881.25
2023-04-03T16:54:14.491Z,99876.53
2023-04-03T16:56:41.378Z,99884.19
2023-04-03T16:59:08.407Z,99880.66
2023-04-03T17:01:35.848Z,99888.81
2023-04-03T17:04:03.532Z,99896.00
2023-04-03T17:06:34.505Z,99897.72
2023-04-03T17:09:01.292Z,99896.09
2023-04-03T17:11:29.168Z,99908.75
2023-04-03T17:13:55.993Z,99912.91
2023-04-03T17:16:23.674Z,99899.19
2023-04-03T17:18:53.305Z,99923.06
2023-04-03T17:21:20.104Z,99907.81
2023-04-03T17:23:50.556Z,99899.41
2023-04-03T17:26:17.783Z,99906.31
2023-04-03T17:28:45.617Z,99905.22
2023-04-03T17:31:13.615Z,99909.44
2023-04-03T17:33:40.408Z,99907.56
2023-04-03T17:36:08.059Z,99909.53
2023-04-03T17:38:35.383Z,99903.28
2023-04-03T17:41:05.922Z,99909.13
2023-04-03T17:43:32.961Z,99913.75
2023-04-03T17:46:09.047Z,99923.38
2023-04-03T17:48:39.534Z,99920.31
2023-04-03T17:51:14.850Z,99926.59
2023-04-03T17:53:42.255Z,99927.31
2023-04-03T17:56:14.511Z,99928.56
2023-04-03T17:58:43.237Z,99937.47
2023-04-03T18:01:19.092Z,99943.09
2023-04-03T18:03:51.657Z,99938.81
2023-04-03T18:06:21.146Z,99950.09
2023-04-03T18:08:50.836Z,99949.94
2023-04-03T18:11:19.552Z,99948.13
2023-04-03T18:13:46.574Z,99955.78
2023-04-03T18:16:14.060Z,99954.63
2023-04-03T18:18:41.191Z,99959.09
2023-04-03T18:21:12.838Z,99971.16
2023-04-03T18:23:46.843Z,99962.25
2023-04-03T18:26:17.932Z,99970.53
2023-04-03T18:28:52.094Z,99973.81
2023-04-03T18:31:19.202Z,99979.47
2023-04-03T18:33:46.065Z,99982.25
2023-04-03T18:36:12.859Z,99994.03
2023-04-03T18:38:40.221Z,99983.78
2023-04-03T18:41:09.519Z,99989.56
2023-04-03T18:43:36.677Z,99989.25
2023-04-03T18:46:05.353Z,99979.66
2023-04-03T18:48:34.375Z,99980.13
2023-04-03T18:51:02.395Z,99999.53
2023-04-03T18:53:31.250Z,99992.91
2023-04-03T18:55:58.029Z,100006.81
2023-04-03T18:58:24.916Z,100003.66
2023-04-03T19:00:51.667Z,100016.44
2023-04-03T19:03:18.511Z,100012.63
2023-04-03T19:05:46.445Z,100019.91
2023-04-03T19:08:13.888Z,100023.56
2023-04-03T19:10:41.406Z,100014.41
2023-04-03T19:13:08.269Z,100024.88
2023-04-03T19:15:35.020Z,100025.34
2023-04-03T19:18:02.120Z,100033.81
2023-04-03T19:20:29.233Z,100038.44
2023-04-03T19:22:58.828Z,100046.41
2023-04-03T19:25:25.620Z,100049.41
2023-04-03T19:27:53.121Z,100049.53
2023-04-03T19:30:24.258Z,100051.22
2023-04-03T19:32:51.713Z,100057.00
2023-04-03T19:35:18.576Z,100057.50
2023-04-03T19:37:49.028Z,100064.94
2023-04-03T19:40:15.930Z,100068.09
2023-04-03T19:42:43.199Z,100065.13
2023-04-03T19:45:11.448Z,100071.25
2023-04-03T19:47:38.680Z,100063.63
2023-04-03T19:50:06.005Z,100061.13
2023-04-03T19:52:32.910Z,100062.78
2023-04-03T19:54:59.652Z,100067.44
2023-04-03T19:57:28.037Z,100074.53
2023-04-03T19:59:54.785Z,100077.22
2023-04-03T20:02:24.389Z,100078.19
2023-04-03T20:04:51.416Z,100068.09
2023-04-03T20:07:19.453Z,100072.59
2023-04-03T20:09:47.155Z,100072.56
2023-04-03T20:12:13.914Z,100067.25
2023-04-03T20:14:46.924Z,100071.22
2023-04-03T20:17:13.722Z,100081.50
2023-04-03T20:19:41.925Z,100077.03
2023-04-03T20:22:08.737Z,100073.88
2023-04-03T20:24:35.497Z,100070.94
2023-04-03T20:27:02.246Z,100063.97
2023-04-03T20:29:29.167Z,100072.38
2023-04-03T20:31:58.112Z,100075.53
2023-04-03T20:34:25.411Z,100072.72
2023-04-03T20:36:53.222Z,100073.38
2023-04-03T20:39:24.129Z,100073.53
2023-04-03T20:41:53.752Z,100065.59
2023-04-03T20:44:22.100Z,100062.44
2023-04-03T20:46:54.055Z,100059.31
2023-04-03T20:49:22.998Z,100055.16
2023-04-03T20:51:51.390Z,100058.97
2023-04-03T20:54:20.276Z,100050.50
2023-04-03T20:56:50.014Z,100046.53
2023-04-03T20:59:17.863Z,100047.34
2023-04-03T21:01:44.828Z,100056.28
2023-04-03T21:04:18.494Z,100045.69
2023-04-03T21:07:22.981Z,100044.19
2023-04-03T21:10:28.470Z,100041.22
2023-04-03T21:13:33.053Z,100043.84
2023-04-03T21:16:03.092Z,100038.19
2023-04-03T21:18:36.955Z,100042.34
2023-04-03T21:21:06.203Z,100038.09
2023-04-03T21:23:34.343Z,100043.22
2023-04-03T21:26:01.947Z,100034.53
2023-04-03T21:28:28.884Z,100024.50
2023-04-03T21:30:55.892Z,100016.00
2023-04-03T21:33:46.539Z,100009.56
2023-04-03T21:36:13.386Z,100004.44
2023-04-03T21:38:40.736Z,100003.94
2023-04-03T21:41:07.405Z,100000.09
2023-04-03T21:43:34.826Z,99994.59
2023-04-03T21:46:01.944Z,99991.44
2023-04-03T21:48:31.366Z,100000.91
2023-04-03T21:51:05.194Z,99992.09
2023-04-03T21:53:33.766Z,99995.22
2023-04-03T21:56:02.342Z,99986.47
2023-04-03T21:58:33.644Z,99988.91
2023-04-03T22:01:14.118Z,99998.81
2023-04-03T22:03:42.171Z,99990.16
2023-04-03T22:06:09.521Z,99983.91
2023-04-03T22:08:36.492Z,99990.50
2023-04-03T22:11:07.931Z,99988.34
2023-04-03T22:13:34.955Z,99990.34
2023-04-03T22:16:02.510Z,99990.84
2023-04-03T22:18:29.820Z,99990.38
2023-04-03T22:20:56.551Z,99979.94
2023-04-03T22:23:25.720Z,99985.19
2023-04-03T22:26:06.395Z,99984.97
2023-04-03T22:28:34.855Z,99989.22
2023-04-03T22:31:03.896Z,99986.13
2023-04-03T22:33:31.136Z,99981.34
2023-04-03T22:35:57.945Z,99980.94
2023-04-03T22:38:25.004Z,99969.66
2023-04-03T22:41:02.267Z,99980.97
2023-04-03T22:43:30.569Z,99970.94
2023-04-03T22:45:57.702Z,99967.94
2023-04-03T22:48:24.819Z,99962.16
2023-04-03T22:50:51.697Z,99956.19
2023-04-03T22:53:19.366Z,99958.81
2023-04-03T22:55:59.114Z,99962.81
2023-04-03T22:58:26.611Z,99959.03
2023-04-03T23:01:10.481Z,99965.81
2023-04-03T23:03:38.958Z,99962.94
2023-04-03T23:06:06.238Z,99952.72
2023-04-03T23:08:35.206Z,99959.13
2023-04-03T23:11:02.328Z,99952.06
2023-04-03T23:13:29.548Z,99948.91
2023-04-03T23:16:02.850Z,99951.28
2023-04-03T23:18:31.483Z,99963.41
2023-04-03T23:21:04.749Z,99940.63
2023-04-03T23:23:32.291Z,99942.06
2023-04-03T23:26:01.401Z,99950.41
2023-04-03T23:28:28.902Z,99939.31
2023-04-03T23:31:00.546Z,99953.00
2023-04-03T23:33:28.468Z,99937.63
2023-04-03T23:36:00.473Z,99948.53
2023-04-03T23:38:30.032Z,99936.88
2023-04-03T23:40:57.196Z,99943.78
2023-04-03T23:43:28.140Z,99942.25
2023-04-03T23:45:55.634Z,99952.25
2023-04-03T23:48:22.611Z,99939.66
2023-04-03T23:50:49.472Z,99942.69
2023-04-03T23:53:16.501Z,99942.63
2023-04-03T23:55:43.504Z,99940.53
2023-04-03T23:58:11.039Z,99937.94
